Time;durP1;ratioP1;P1;durP2;ratioP2;P2;SDS_P1;SDS_P2;PMS_P1;PMS_P2;Temp;Humidity;BMP_temperature;BMP_pressure;BME280_temperature;BME280_humidity;BME280_pressure;Samples;Min_cycle;Max_cycle;Signal;HPM_P1;HPM_P2
2021/05/11 00:02:44;;;;;;;;;10.00;9.00;;;;;22.14;33.45;98560.84;6210925;28;127028;-64
2021/05/11 00:05:47;;;;;;;;;12.00;11.00;;;;;22.07;33.48;98552.19;6190893;28;126162;-64
2021/05/11 00:08:49;;;;;;;;;11.60;11.00;;;;;22.01;33.89;98556.97;6185932;28;126196;-64
2021/05/11 00:11:51;;;;;;;;;11.00;11.00;;;;;21.95;34.21;98555.41;6185218;28;124695;-65
2021/05/11 00:14:54;;;;;;;;;11.20;10.20;;;;;21.88;34.08;98550.31;6209629;28;126899;-63
2021/05/11 00:17:57;;;;;;;;;10.00;9.00;;;;;21.61;33.24;98517.34;6209511;28;125605;-63
2021/05/11 00:21:00;;;;;;;;;8.20;8.20;;;;;21.82;32.54;98540.53;6209529;28;124894;-63
2021/05/11 00:24:03;;;;;;;;;10.00;9.00;;;;;21.55;32.81;98488.41;6204496;28;125173;-64
2021/05/11 00:27:06;;;;;;;;;8.00;7.80;;;;;22.03;32.43;98544.56;6186023;28;125494;-65
2021/05/11 00:30:11;;;;;;;;;7.00;7.00;;;;;22.15;32.08;98544.03;6186170;28;126334;-65
2021/05/11 00:33:14;;;;;;;;;8.20;8.00;;;;;22.33;31.38;98547.81;6186041;28;125967;-65
2021/05/11 00:36:17;;;;;;;;;10.25;10.00;;;;;22.43;30.66;98542.91;6184962;28;123555;-65
2021/05/11 00:39:19;;;;;;;;;10.00;9.00;;;;;22.61;31.67;98554.06;6200594;28;125733;-64
2021/05/11 00:42:21;;;;;;;;;10.50;10.00;;;;;22.38;32.63;98515.53;6191230;28;127576;-65
2021/05/11 00:45:24;;;;;;;;;10.00;10.00;;;;;22.51;32.96;98540.56;6214466;28;125472;-63
2021/05/11 00:48:27;;;;;;;;;10.60;9.60;;;;;22.43;33.44;98545.66;6213882;28;125005;-64
2021/05/11 00:51:29;;;;;;;;;10.60;10.00;;;;;22.20;34.49;98537.63;6213226;28;126268;-64
2021/05/11 00:54:32;;;;;;;;;11.00;11.00;;;;;21.89;34.38;98520.94;6213241;28;126236;-64
2021/05/11 00:57:36;;;;;;;;;10.00;10.00;;;;;21.70;35.31;98528.44;6214218;28;125078;-64
2021/05/11 01:00:38;;;;;;;;;12.00;11.75;;;;;21.50;36.45;98526.88;6214188;28;125403;-64
2021/05/11 01:03:41;;;;;;;;;12.40;12.40;;;;;21.47;36.75;98531.03;6212894;28;125087;-64
2021/05/11 01:06:44;;;;;;;;;12.00;12.00;;;;;21.35;37.19;98527.97;6212195;28;126383;-64
2021/05/11 01:09:46;;;;;;;;;15.00;12.00;;;;;21.21;37.63;98523.56;6214190;28;126482;-64
2021/05/11 01:12:48;;;;;;;;;15.00;13.60;;;;;21.11;37.61;98522.56;6209485;28;126602;-64
2021/05/11 01:15:51;;;;;;;;;12.60;12.00;;;;;21.03;37.72;98530.66;6189451;28;126978;-64
2021/05/11 01:18:57;;;;;;;;;12.80;11.80;;;;;20.95;37.89;98520.38;6189483;28;123567;-64
2021/05/11 01:22:18;;;;;;;;;13.00;12.00;;;;;20.86;38.41;98514.75;6189281;28;126186;-63
2021/05/11 01:25:22;;;;;;;;;13.00;11.00;;;;;20.77;38.51;98509.13;6189087;28;123999;-63
2021/05/11 01:28:28;;;;;;;;;14.00;14.00;;;;;20.69;38.63;98517.19;6189011;28;126666;-64
2021/05/11 01:45:17;;;;;;;;;13.00;12.00;;;;;20.20;39.18;98499.22;6188446;28;124950;-64
2021/05/11 01:48:29;;;;;;;;;12.00;11.80;;;;;20.15;39.26;98501.19;6187942;28;126031;-65
2021/05/11 01:51:51;;;;;;;;;13.00;12.00;;;;;20.15;39.35;98495.72;6201451;28;125949;-64
2021/05/11 01:55:11;;;;;;;;;15.00;14.00;;;;;20.11;39.79;98503.72;6188766;28;124929;-65
2021/05/11 02:25:14;;;;;;;;;15.00;13.00;;;;;19.72;40.44;98482.03;6212775;28;126531;-63
2021/05/11 02:28:17;;;;;;;;;17.50;14.50;;;;;19.76;40.37;98483.06;6204773;28;126031;-64
2021/05/11 02:31:19;;;;;;;;;12.60;12.00;;;;;19.76;40.21;98494.00;6211361;28;126977;-64
2021/05/11 02:34:22;;;;;;;;;12.00;12.00;;;;;19.60;39.89;98451.50;6211343;28;124089;-64
2021/05/11 02:37:24;;;;;;;;;11.50;11.00;;;;;19.75;39.74;98486.91;6211796;28;126792;-64
2021/05/11 02:40:26;;;;;;;;;12.00;11.00;;;;;19.76;40.07;98482.25;6210814;28;126377;-64
2021/05/11 02:43:32;;;;;;;;;12.00;11.00;;;;;19.76;40.00;98484.97;6210477;28;123821;-64
2021/05/11 02:46:35;;;;;;;;;11.40;11.00;;;;;19.68;40.56;98478.25;6212406;28;125205;-64
2021/05/11 02:49:40;;;;;;;;;11.00;9.40;;;;;19.62;40.76;98481.31;6211479;28;126405;-64
2021/05/11 02:52:42;;;;;;;;;14.00;12.25;;;;;19.53;40.77;98480.31;6202323;28;124867;-65
2021/05/11 02:55:45;;;;;;;;;14.60;13.60;;;;;19.49;40.86;98476.53;6187399;28;126377;-64
2021/05/11 02:58:49;;;;;;;;;12.00;11.75;;;;;19.41;41.17;98486.13;6187021;28;126383;-64
2021/05/11 03:01:51;;;;;;;;;10.00;9.80;;;;;19.38;41.40;98473.06;6195072;28;126726;-64
2021/05/11 03:04:55;;;;;;;;;13.00;11.00;;;;;19.22;41.64;98468.84;6197245;28;126544;-64
2021/05/11 03:07:57;;;;;;;;;13.00;11.00;;;;;19.35;41.32;98468.19;6205903;28;127018;-64
2021/05/11 03:10:59;;;;;;;;;15.00;14.00;;;;;19.35;41.28;98460.78;6211993;28;126457;-64
2021/05/11 03:14:03;;;;;;;;;10.00;8.80;;;;;19.37;41.18;98460.50;6211700;28;124160;-64
2021/05/11 03:17:05;;;;;;;;;13.50;11.50;;;;;19.30;41.14;98455.34;6209181;28;124667;-64
2021/05/11 03:20:11;;;;;;;;;13.00;12.40;;;;;19.41;41.15;98459.63;6209245;28;126336;-65
2021/05/11 03:23:13;;;;;;;;;12.60;12.60;;;;;19.49;41.11;98466.44;6209720;28;127093;-64
2021/05/11 03:26:16;;;;;;;;;12.00;11.80;;;;;19.55;40.81;98475.38;6209090;28;126398;-64
2021/05/11 03:29:19;;;;;;;;;12.60;11.60;;;;;19.53;40.38;98455.72;6212046;28;125271;-64
2021/05/11 03:32:22;;;;;;;;;13.00;12.00;;;;;19.58;40.49;98453.75;6205043;28;126214;-64
2021/05/11 03:35:24;;;;;;;;;14.00;13.00;;;;;19.72;40.85;98459.31;6196869;28;126213;-64
2021/05/11 03:38:26;;;;;;;;;12.75;11.50;;;;;19.72;40.81;98468.34;6186511;28;124326;-64
2021/05/11 03:41:29;;;;;;;;;14.25;12.25;;;;;19.71;40.71;98474.91;6188956;28;125352;-64
2021/05/11 03:44:34;;;;;;;;;14.00;13.40;;;;;19.69;41.01;98455.25;6168568;28;125246;-64
2021/05/11 03:47:44;;;;;;;;;14.60;13.00;;;;;19.73;40.97;98461.78;6189399;28;125784;-64
2021/05/11 03:50:47;;;;;;;;;13.40;13.20;;;;;19.61;40.57;98439.47;6205325;28;125444;-64
2021/05/11 03:53:50;;;;;;;;;16.00;13.60;;;;;19.83;40.71;98458.91;6211057;28;125007;-64
2021/05/11 03:56:52;;;;;;;;;15.00;13.00;;;;;19.86;41.15;98449.31;6210420;28;126609;-64
2021/05/11 03:59:56;;;;;;;;;15.60;14.60;;;;;19.92;40.93;98445.41;6209544;28;126182;-64
2021/05/11 04:02:58;;;;;;;;;13.80;13.40;;;;;19.99;40.73;98443.09;6206668;28;124632;-64
2021/05/11 04:06:02;;;;;;;;;13.00;13.00;;;;;20.08;40.92;98443.28;6184980;28;125557;-64
2021/05/11 04:09:11;;;;;;;;;16.40;15.00;;;;;20.20;40.49;98438.19;6197978;28;124894;-64
2021/05/11 04:12:45;;;;;;;;;14.00;13.00;;;;;20.34;40.06;98444.56;6186513;28;125966;-65
2021/05/11 04:19:09;;;;;;;;;15.00;14.00;;;;;20.65;39.74;98436.72;6197431;28;124800;-64
2021/05/11 04:22:12;;;;;;;;;14.00;13.00;;;;;20.75;39.37;98437.38;6211201;28;126120;-64
2021/05/11 04:25:15;;;;;;;;;14.40;14.40;;;;;20.89;39.04;98440.16;6199052;28;125122;-64
2021/05/11 04:28:18;;;;;;;;;11.00;11.00;;;;;20.99;38.59;98445.47;6195445;28;126274;-63
2021/05/11 04:31:22;;;;;;;;;13.40;12.00;;;;;20.93;38.56;98459.56;6203317;28;125944;-64
2021/05/11 04:34:24;;;;;;;;;15.60;14.00;;;;;21.01;38.75;98439.72;6203997;28;125782;-64
2021/05/11 04:37:27;;;;;;;;;14.00;14.00;;;;;21.12;38.95;98463.06;6200204;28;124921;-64
2021/05/11 04:40:30;;;;;;;;;14.40;13.00;;;;;21.26;39.30;98461.19;6201709;28;124705;-65
2021/05/11 04:43:35;;;;;;;;;13.25;13.00;;;;;21.35;38.11;98450.38;6208961;28;126041;-65
2021/05/11 04:46:44;;;;;;;;;13.00;12.00;;;;;21.40;38.40;98456.59;6189936;28;126188;-64
2021/05/11 04:49:47;;;;;;;;;13.50;13.00;;;;;21.45;38.44;98450.97;6201617;28;124082;-64
2021/05/11 04:52:51;;;;;;;;;13.20;13.00;;;;;21.54;38.55;98448.38;6213526;28;124988;-64
2021/05/11 04:55:54;;;;;;;;;13.00;13.00;;;;;21.65;38.49;98446.25;6213605;28;125841;-64
2021/05/11 04:58:57;;;;;;;;;15.40;14.00;;;;;21.82;38.26;98454.66;6214169;28;125019;-64
2021/05/11 05:02:01;;;;;;;;;14.00;13.00;;;;;22.00;37.91;98445.53;6214158;28;125829;-64
2021/05/11 05:05:05;;;;;;;;;16.00;15.00;;;;;22.15;37.84;98445.19;6212432;28;125983;-64
2021/05/11 05:08:09;;;;;;;;;14.00;13.67;;;;;22.10;37.54;98417.84;6196656;28;124738;-64
2021/05/11 05:11:12;;;;;;;;;12.75;12.75;;;;;22.30;36.84;98447.63;6189762;28;126623;-64
2021/05/11 05:14:15;;;;;;;;;14.00;13.00;;;;;22.29;36.47;98402.03;6187959;28;125092;-64
2021/05/11 05:17:18;;;;;;;;;12.75;11.00;;;;;22.47;36.46;98408.53;6189196;28;125450;-64
2021/05/11 05:20:21;;;;;;;;;12.00;12.00;;;;;22.78;36.31;98436.09;6188723;28;124740;-64
2021/05/11 05:23:30;;;;;;;;;14.00;13.00;;;;;22.91;36.33;98443.47;6188814;28;123847;-64
2021/05/11 05:26:32;;;;;;;;;13.00;12.40;;;;;23.01;35.88;98450.66;6197600;28;125891;-64
2021/05/11 05:29:35;;;;;;;;;12.60;12.00;;;;;23.09;35.62;98442.47;6196028;28;126182;-64
2021/05/11 05:32:39;;;;;;;;;12.40;11.00;;;;;23.09;35.24;98441.66;6193253;28;128137;-64
2021/05/11 05:35:44;;;;;;;;;13.60;12.00;;;;;23.01;36.23;98420.41;6198470;28;124934;-64
2021/05/11 05:38:46;;;;;;;;;14.00;12.00;;;;;23.30;35.75;98434.50;6195866;28;125411;-64
2021/05/11 05:41:49;;;;;;;;;15.60;13.60;;;;;23.35;35.78;98431.63;6195651;28;124924;-64
2021/05/11 05:44:51;;;;;;;;;12.00;11.40;;;;;23.41;36.45;98424.03;6196951;28;126726;-64
2021/05/11 05:47:55;;;;;;;;;13.33;12.00;;;;;23.55;36.38;98427.53;6199082;28;126381;-64
2021/05/11 05:51:00;;;;;;;;;15.00;13.00;;;;;23.72;36.12;98427.59;6198063;28;126109;-64
2021/05/11 05:54:03;;;;;;;;;11.60;11.20;;;;;23.85;35.46;98426.66;6197218;28;125914;-64
2021/05/11 05:57:06;;;;;;;;;14.00;11.75;;;;;23.42;34.72;98367.88;6204108;28;125082;-64
2021/05/11 06:00:12;;;;;;;;;12.00;12.00;;;;;24.06;34.73;98422.16;6197350;28;125270;-64
2021/05/11 06:06:36;;;;;;;;;11.25;10.25;;;;;24.13;34.87;98422.53;6196604;28;124632;-64
2021/05/11 06:09:39;;;;;;;;;11.00;10.00;;;;;24.27;35.23;98416.91;6198375;28;126712;-64
2021/05/11 06:12:48;;;;;;;;;12.25;10.25;;;;;24.47;35.21;98419.03;6196241;28;127149;-64
2021/05/11 06:19:13;;;;;;;;;12.00;10.00;;;;;24.81;34.41;98418.19;6197556;28;124737;-64
2021/05/11 06:22:17;;;;;;;;;12.20;10.60;;;;;24.77;34.44;98408.97;6197774;28;124890;-64
2021/05/11 06:25:19;;;;;;;;;14.00;13.00;;;;;24.91;34.41;98411.56;6210430;28;125045;-64
2021/05/11 06:28:23;;;;;;;;;13.00;11.40;;;;;24.98;34.46;98414.63;6211600;28;126673;-64
2021/05/11 06:31:26;;;;;;;;;15.40;13.80;;;;;25.06;35.22;98404.72;6211590;28;124321;-64
2021/05/11 06:34:30;;;;;;;;;9.25;9.00;;;;;25.21;34.73;98409.72;6210677;28;126095;-64
2021/05/11 06:37:33;;;;;;;;;13.00;13.00;;;;;25.37;34.36;98410.78;6211717;28;124803;-64
2021/05/11 06:40:38;;;;;;;;;10.60;10.20;;;;;25.54;34.13;98409.91;6210779;28;125330;-64
2021/05/11 06:43:43;;;;;;;;;11.20;11.00;;;;;25.77;34.65;98403.00;6210950;28;124041;-64
2021/05/11 06:50:16;;;;;;;;;11.00;10.40;;;;;26.14;34.58;98409.63;6209020;28;126509;-63
2021/05/11 06:53:18;;;;;;;;;12.00;10.00;;;;;26.40;34.09;98403.94;6211415;28;125127;-64
2021/05/11 06:56:22;;;;;;;;;10.00;8.60;;;;;26.61;34.42;98391.72;6211482;28;126768;-64
2021/05/11 06:59:26;;;;;;;;;12.00;11.60;;;;;26.73;33.13;98404.81;6211747;28;126011;-64
2021/05/11 07:02:30;;;;;;;;;12.00;11.60;;;;;26.75;33.50;98405.28;6211618;28;125584;-64
2021/05/11 07:05:35;;;;;;;;;10.60;10.60;;;;;26.96;34.10;98402.50;6210771;28;126984;-63
2021/05/11 07:08:41;;;;;;;;;10.00;9.00;;;;;27.26;33.50;98398.44;6209135;28;126473;-63
2021/05/11 07:15:07;;;;;;;;;11.00;10.00;;;;;27.75;33.02;98392.97;6201485;28;124984;-64
2021/05/11 07:18:12;;;;;;;;;13.00;12.00;;;;;28.05;33.57;98383.28;6185326;28;124931;-66
2021/05/11 07:21:16;;;;;;;;;12.60;11.60;;;;;28.39;32.47;98382.75;6188656;28;125919;-65
2021/05/11 07:24:23;;;;;;;;;11.50;11.00;;;;;28.68;32.37;98378.84;6186261;28;124698;-64
2021/05/11 07:27:48;;;;;;;;;8.00;8.00;;;;;28.98;32.19;98376.53;6185500;28;124945;-64
2021/05/11 07:30:51;;;;;;;;;10.00;9.00;;;;;29.32;31.95;98385.41;6205099;28;124837;-65
2021/05/11 07:33:55;;;;;;;;;10.00;10.00;;;;;29.54;30.71;98373.66;6197206;28;124516;-64
2021/05/11 07:37:00;;;;;;;;;9.40;8.80;;;;;29.75;31.18;98382.53;6184650;28;124767;-63
2021/05/11 07:40:04;;;;;;;;;10.20;9.00;;;;;29.92;30.50;98378.56;6186924;28;124197;-63
2021/05/11 07:43:07;;;;;;;;;10.40;10.00;;;;;30.03;30.06;98371.28;6204678;28;124909;-63
2021/05/11 07:46:28;;;;;;;;;9.60;9.60;;;;;30.31;29.41;98382.25;6211129;28;124621;-64
2021/05/11 07:49:58;;;;;;;;;9.00;9.00;;;;;30.58;29.44;98378.50;6210378;28;125885;-64
2021/05/11 08:03:36;;;;;;;;;10.00;9.60;;;;;31.48;27.57;98373.47;6188020;28;125996;-64
2021/05/11 08:10:21;;;;;;;;;9.00;9.00;;;;;31.89;27.75;98371.78;6209534;28;124806;-64
2021/05/11 08:16:44;;;;;;;;;9.60;9.00;;;;;32.33;26.30;98367.28;6191769;28;123318;-64
2021/05/11 08:19:58;;;;;;;;;8.00;8.00;;;;;32.41;26.45;98360.59;6210786;28;124932;-64
2021/05/11 08:23:19;;;;;;;;;8.00;8.00;;;;;32.43;26.71;98366.63;6210535;28;125680;-63
2021/05/11 08:29:43;;;;;;;;;9.00;8.60;;;;;32.61;25.85;98355.66;6210801;28;124558;-64
2021/05/11 08:32:46;;;;;;;;;7.00;6.75;;;;;32.71;25.76;98351.44;6204987;28;126654;-65
2021/05/11 08:35:49;;;;;;;;;8.00;7.00;;;;;32.66;25.64;98327.44;6185660;28;124812;-64
2021/05/11 08:38:52;;;;;;;;;7.60;7.60;;;;;33.16;25.57;98348.38;6202033;28;123909;-64
2021/05/11 08:41:57;;;;;;;;;7.00;6.60;;;;;33.23;24.50;98362.44;6208420;28;125750;-63
2021/05/11 08:45:02;;;;;;;;;8.00;7.00;;;;;32.93;24.43;98340.13;6209289;28;126496;-65
2021/05/11 08:48:06;;;;;;;;;7.00;7.00;;;;;33.09;23.82;98354.66;6210502;28;123731;-64
2021/05/11 08:51:11;;;;;;;;;7.00;7.00;;;;;32.94;22.96;98357.69;6200733;28;124991;-64
2021/05/11 09:04:49;;;;;;;;;6.25;6.25;;;;;32.93;23.87;98345.72;6186289;28;126035;-65
2021/05/11 09:08:17;;;;;;;;;6.00;6.00;;;;;32.97;22.93;98345.75;6188594;28;124822;-65
2021/05/11 09:25:20;;;;;;;;;7.40;7.00;;;;;33.15;23.60;98334.75;6121771;28;126180;-64
2021/05/11 09:28:30;;;;;;;;;7.00;7.00;;;;;33.31;22.65;98344.53;6212896;28;126624;-64
2021/05/11 09:31:50;;;;;;;;;5.60;5.00;;;;;33.45;22.91;98333.47;6206636;28;124774;-64
2021/05/11 09:55:25;;;;;;;;;7.00;6.00;;;;;33.94;20.87;98307.91;6201455;28;128606;-64
2021/05/11 09:58:52;;;;;;;;;5.80;5.80;;;;;33.60;20.76;98319.59;6201620;28;125530;-65
2021/05/11 10:40:51;;;;;;;;;5.00;4.00;;;;;34.90;19.82;98282.31;6197289;28;124604;-65
2021/05/11 10:44:22;;;;;;;;;6.00;6.00;;;;;34.87;19.25;98283.94;6192291;28;125236;-63
2021/05/11 10:47:25;;;;;;;;;5.00;5.00;;;;;35.29;19.64;98277.59;6198496;28;124075;-64
2021/05/11 10:50:45;;;;;;;;;5.60;5.60;;;;;35.01;19.41;98272.75;6193878;28;124360;-64
2021/05/11 10:54:03;;;;;;;;;7.00;6.00;;;;;34.86;19.90;98273.94;6204899;28;125083;-63
2021/05/11 10:57:32;;;;;;;;;5.20;5.00;;;;;34.74;19.60;98280.72;6212297;28;126480;-64
2021/05/11 11:00:42;;;;;;;;;5.00;5.00;;;;;35.14;19.30;98268.34;6211135;28;125980;-64
2021/05/11 11:04:07;;;;;;;;;4.00;4.00;;;;;35.25;19.73;98271.19;6210972;28;123624;-64
2021/05/11 11:07:11;;;;;;;;;6.00;5.00;;;;;35.32;18.42;98267.59;6212183;28;126635;-64
2021/05/11 11:10:15;;;;;;;;;5.40;5.00;;;;;35.59;18.61;98255.53;6212041;28;125406;-65
2021/05/11 11:13:20;;;;;;;;;6.00;5.00;;;;;35.65;19.28;98269.97;6205028;28;124775;-63
2021/05/11 11:16:23;;;;;;;;;5.00;4.80;;;;;35.74;18.96;98264.75;6201558;28;125777;-64
2021/05/11 11:19:26;;;;;;;;;4.20;4.20;;;;;35.75;18.32;98263.56;6210666;28;125349;-64
2021/05/11 11:26:04;;;;;;;;;5.00;5.00;;;;;36.09;19.23;98249.03;6209693;28;124281;-65
2021/05/11 11:29:09;;;;;;;;;5.80;5.00;;;;;35.94;18.12;98246.28;6211736;28;124246;-65
2021/05/11 11:32:12;;;;;;;;;5.00;5.00;;;;;36.10;18.19;98247.84;6211534;28;123960;-65
2021/05/11 11:35:14;;;;;;;;;5.00;5.00;;;;;36.26;17.68;98243.41;6211488;28;126863;-64
2021/05/11 11:38:26;;;;;;;;;5.00;5.00;;;;;35.80;18.63;98240.72;6210422;28;125940;-64
2021/05/11 11:41:29;;;;;;;;;6.00;5.00;;;;;35.91;18.11;98240.69;6210034;28;124707;-64
2021/05/11 11:44:38;;;;;;;;;6.00;5.00;;;;;35.95;18.04;98241.47;6194979;28;124813;-64
2021/05/11 11:47:50;;;;;;;;;5.00;5.00;;;;;36.28;17.97;98224.13;6201572;28;125974;-64
2021/05/11 11:50:56;;;;;;;;;5.50;5.00;;;;;36.65;19.04;98232.00;6196911;28;124593;-64
2021/05/11 11:54:08;;;;;;;;;5.00;5.00;;;;;37.14;19.06;98221.63;6198444;28;124851;-63
2021/05/11 12:00:44;;;;;;;;;5.00;5.00;;;;;37.44;16.92;98220.91;6194820;28;124538;-64
2021/05/11 12:03:47;;;;;;;;;4.80;4.80;;;;;37.52;17.77;98205.59;6198859;28;125525;-64
2021/05/11 12:06:51;;;;;;;;;7.20;5.00;;;;;37.40;17.47;98204.09;6191332;28;125509;-65
2021/05/11 12:09:54;;;;;;;;;5.00;5.00;;;;;36.73;17.00;98197.03;6186392;28;124984;-65
2021/05/11 12:12:58;;;;;;;;;6.00;6.00;;;;;36.88;17.13;98190.09;6185157;28;126241;-65
2021/05/11 12:16:12;;;;;;;;;5.80;5.40;;;;;37.21;17.76;98201.88;6201818;28;126980;-65
2021/05/11 12:19:17;;;;;;;;;8.00;6.00;;;;;36.88;17.37;98200.53;6186267;28;126636;-65
2021/05/11 12:22:20;;;;;;;;;6.00;5.50;;;;;36.64;18.23;98195.88;6186126;28;125030;-65
2021/05/11 12:25:24;;;;;;;;;6.00;6.00;;;;;36.49;17.85;98175.50;6185871;28;126203;-65
2021/05/11 12:28:31;;;;;;;;;6.00;6.00;;;;;36.60;17.48;98184.66;6190669;28;124770;-65
2021/05/11 12:31:40;;;;;;;;;5.00;5.00;;;;;36.42;17.67;98183.94;6194868;28;127219;-65
2021/05/11 12:34:43;;;;;;;;;6.00;5.00;;;;;36.29;17.78;98105.03;6201822;28;124852;-65
2021/05/11 12:37:48;;;;;;;;;6.00;6.00;;;;;36.87;17.70;98170.81;6192996;28;126338;-64
2021/05/11 12:41:01;;;;;;;;;7.00;6.00;;;;;37.12;18.52;98173.44;6199251;28;126116;-64
2021/05/11 12:44:05;;;;;;;;;6.00;6.00;;;;;37.29;18.16;98164.84;6190200;28;125919;-64
2021/05/11 12:47:09;;;;;;;;;6.00;6.00;;;;;37.30;17.43;98163.63;6189971;28;124182;-64
2021/05/11 12:50:14;;;;;;;;;8.00;7.00;;;;;36.61;17.83;98154.56;6187975;28;123749;-64
2021/05/11 12:53:32;;;;;;;;;5.00;5.00;;;;;36.69;17.51;98156.94;6189459;28;124684;-64
2021/05/11 12:56:46;;;;;;;;;7.00;6.00;;;;;36.86;17.69;98158.78;6188508;28;125800;-65
2021/05/11 13:00:12;;;;;;;;;6.67;6.00;;;;;36.44;18.01;98148.66;6188665;28;126112;-64
2021/05/11 13:03:39;;;;;;;;;5.00;5.00;;;;;36.68;17.94;98144.09;6182501;28;124757;-64
2021/05/11 13:13:57;;;;;;;;;6.00;6.00;;;;;37.26;17.23;98140.38;6197293;28;126662;-64
2021/05/11 13:17:04;;;;;;;;;7.00;6.00;;;;;37.39;17.04;98132.22;6198919;28;126361;-64
2021/05/11 13:20:23;;;;;;;;;6.00;6.00;;;;;37.35;18.42;98102.53;6207790;28;124761;-63
2021/05/11 13:26:46;;;;;;;;;7.00;6.00;;;;;37.22;17.27;98117.13;6203493;28;123856;-64
2021/05/11 13:30:02;;;;;;;;;6.80;5.00;;;;;37.09;17.78;98109.66;6202346;28;125700;-64
2021/05/11 13:33:23;;;;;;;;;5.50;5.00;;;;;36.69;18.31;98106.38;6200116;28;124585;-65
2021/05/11 13:36:27;;;;;;;;;6.20;6.00;;;;;36.35;18.19;98103.41;6202330;28;126972;-64
2021/05/11 13:39:30;;;;;;;;;7.00;6.40;;;;;36.27;18.34;98096.22;6214131;28;124458;-64
2021/05/11 13:42:33;;;;;;;;;8.00;7.00;;;;;36.18;18.69;98093.06;6199214;28;124378;-64
2021/05/11 13:45:36;;;;;;;;;6.00;6.00;;;;;36.28;18.13;98105.44;6200899;28;126476;-64
2021/05/11 13:48:40;;;;;;;;;6.00;5.00;;;;;36.51;18.83;98099.28;6212401;28;127401;-64
2021/05/11 13:51:44;;;;;;;;;7.00;6.00;;;;;36.61;18.35;98093.59;6213302;28;125876;-64
2021/05/11 13:54:51;;;;;;;;;6.00;5.40;;;;;36.64;18.47;98086.34;6211930;28;126288;-64
2021/05/11 14:04:35;;;;;;;;;6.00;6.00;;;;;36.71;18.58;98080.66;6221620;28;125986;-64
2021/05/11 14:07:39;;;;;;;;;8.00;6.00;;;;;36.79;18.75;98073.78;6207620;28;125046;-64
2021/05/11 14:10:42;;;;;;;;;6.00;6.00;;;;;36.22;18.37;98068.59;6195136;28;124100;-64
2021/05/11 14:13:44;;;;;;;;;7.00;6.80;;;;;36.34;19.59;98062.50;6200421;28;124442;-64
2021/05/11 14:16:47;;;;;;;;;5.00;5.00;;;;;36.24;18.73;98063.38;6190301;28;125116;-64
2021/05/11 14:19:52;;;;;;;;;6.00;6.00;;;;;36.16;18.84;98064.66;6197958;28;126073;-64
2021/05/11 14:22:55;;;;;;;;;7.00;7.00;;;;;36.15;19.44;98046.22;6195717;28;125461;-64
2021/05/11 14:25:58;;;;;;;;;8.00;7.75;;;;;36.07;19.14;98050.22;6202900;28;126835;-64
2021/05/11 14:29:01;;;;;;;;;6.60;6.00;;;;;35.92;18.91;98034.72;6199979;28;126960;-64
2021/05/11 14:32:04;;;;;;;;;6.20;6.20;;;;;35.97;19.23;98032.25;6190103;28;126614;-64
2021/05/11 14:35:08;;;;;;;;;9.00;7.00;;;;;35.43;19.02;97971.28;6196020;28;125167;-64
2021/05/11 14:38:12;;;;;;;;;7.00;7.00;;;;;35.71;18.98;98026.41;6205928;28;126071;-64
2021/05/11 14:41:16;;;;;;;;;6.20;6.00;;;;;35.48;19.56;98027.69;6190910;28;125623;-64
2021/05/11 14:44:19;;;;;;;;;6.00;6.00;;;;;35.18;19.81;97997.41;6207860;28;124429;-64
2021/05/11 14:47:23;;;;;;;;;7.60;7.00;;;;;35.45;20.21;98020.09;6200816;28;124864;-64
2021/05/11 14:50:26;;;;;;;;;6.00;6.00;;;;;35.45;20.00;98016.50;6185643;28;124032;-64
2021/05/11 14:53:31;;;;;;;;;8.40;8.00;;;;;35.55;19.65;98016.44;6199788;28;125480;-64
2021/05/11 14:56:38;;;;;;;;;6.80;6.20;;;;;35.59;20.11;98017.22;6189113;28;126168;-64
2021/05/11 14:59:41;;;;;;;;;6.00;6.00;;;;;35.46;19.60;98007.69;6197086;28;125526;-64
2021/05/11 15:02:44;;;;;;;;;7.60;7.00;;;;;35.45;19.74;98005.28;6188376;28;97676;-63
2021/05/11 15:05:47;;;;;;;;;7.00;7.00;;;;;35.45;19.79;98011.69;6197230;28;126542;-64
2021/05/11 15:08:51;;;;;;;;;7.40;6.40;;;;;35.15;19.29;97994.56;6193511;28;125222;-64
2021/05/11 15:11:53;;;;;;;;;7.40;6.60;;;;;35.07;19.54;97990.22;6199431;28;125085;-63
2021/05/11 15:14:56;;;;;;;;;5.60;5.40;;;;;34.90;19.27;98003.06;6195021;28;125239;-64
2021/05/11 15:18:05;;;;;;;;;5.00;5.00;;;;;34.81;19.27;97985.06;6200516;28;125159;-63
2021/05/11 15:21:07;;;;;;;;;6.00;5.50;;;;;34.81;19.57;97987.88;6197876;28;125503;-63
2021/05/11 15:24:11;;;;;;;;;6.00;6.00;;;;;34.61;19.30;97993.88;6201629;28;126243;-63
2021/05/11 15:27:15;;;;;;;;;7.00;7.00;;;;;34.44;19.85;97968.72;6205745;28;125288;-63
2021/05/11 15:30:25;;;;;;;;;6.00;5.60;;;;;34.52;19.56;97984.31;6185820;28;124777;-64
2021/05/11 15:33:28;;;;;;;;;6.40;6.40;;;;;34.46;19.42;97983.91;6197360;28;124953;-64
2021/05/11 15:36:31;;;;;;;;;6.40;5.60;;;;;34.45;19.84;97973.13;6198293;28;124522;-64
2021/05/11 15:39:34;;;;;;;;;8.00;7.00;;;;;34.50;19.82;97972.72;6191769;28;126012;-64
2021/05/11 15:42:38;;;;;;;;;5.20;5.20;;;;;34.50;19.56;97969.94;6193565;28;125378;-64
2021/05/11 15:45:41;;;;;;;;;7.40;7.00;;;;;34.33;19.91;97963.16;6196521;28;125924;-64
2021/05/11 15:48:43;;;;;;;;;7.00;7.00;;;;;34.28;20.23;97955.16;6204707;28;126454;-64
2021/05/11 15:51:46;;;;;;;;;7.20;6.80;;;;;34.27;20.13;97945.16;6202758;28;126145;-64
2021/05/11 15:54:51;;;;;;;;;7.00;6.00;;;;;34.05;20.66;97955.53;6206930;28;126278;-65
2021/05/11 15:57:53;;;;;;;;;7.00;6.00;;;;;34.06;20.40;97948.75;6205209;28;125679;-64
2021/05/11 16:00:56;;;;;;;;;6.00;5.60;;;;;33.99;20.47;97951.53;6195000;28;125512;-65
2021/05/11 16:03:59;;;;;;;;;5.75;5.75;;;;;33.91;20.86;97945.16;6201056;28;126535;-63
2021/05/11 16:07:02;;;;;;;;;8.00;7.40;;;;;33.74;20.66;97917.97;6205214;28;125009;-63
2021/05/11 16:10:09;;;;;;;;;6.00;5.20;;;;;33.85;20.84;97932.75;6205454;28;125241;-63
2021/05/11 16:13:12;;;;;;;;;8.00;6.00;;;;;33.82;21.00;97947.53;6196277;28;124621;-63
2021/05/11 16:16:16;;;;;;;;;6.00;6.00;;;;;33.81;21.44;97942.34;6211292;28;125157;-65
2021/05/11 16:19:18;;;;;;;;;5.00;5.00;;;;;33.88;21.53;97931.94;6211839;28;126866;-63
2021/05/11 16:22:21;;;;;;;;;7.00;6.00;;;;;33.85;21.04;97921.56;6201789;28;125140;-63
2021/05/11 16:25:31;;;;;;;;;7.00;6.00;;;;;33.68;21.32;97939.13;6211983;28;126441;-63
2021/05/11 16:28:37;;;;;;;;;6.00;6.00;;;;;33.67;21.90;97936.72;6211897;28;126979;-64
2021/05/11 16:31:40;;;;;;;;;6.00;5.00;;;;;33.62;21.85;97932.31;6211166;28;125377;-63
2021/05/11 16:34:43;;;;;;;;;6.60;6.00;;;;;33.58;22.12;97930.69;6201566;28;125181;-63
2021/05/11 16:37:46;;;;;;;;;6.00;6.00;;;;;33.45;22.68;97936.66;6186344;28;126553;-63
2021/05/11 16:40:49;;;;;;;;;7.00;7.00;;;;;33.29;23.00;97933.41;6195042;28;125259;-63
2021/05/11 16:43:56;;;;;;;;;6.60;6.00;;;;;33.40;22.96;97930.66;6198399;28;126201;-63
2021/05/11 16:46:59;;;;;;;;;7.00;7.00;;;;;33.19;22.70;97927.78;6191862;28;124692;-65
2021/05/11 16:50:03;;;;;;;;;7.00;7.00;;;;;33.12;22.01;97928.56;6206320;28;124600;-65
2021/05/11 16:53:07;;;;;;;;;8.00;7.00;;;;;32.78;22.39;97918.84;6194670;28;125321;-64
2021/05/11 16:56:11;;;;;;;;;9.00;7.40;;;;;32.88;23.36;97926.47;6207917;28;125939;-65
2021/05/11 16:59:14;;;;;;;;;7.00;6.40;;;;;32.71;22.60;97927.16;6200965;28;127057;-64
2021/05/11 17:02:16;;;;;;;;;6.00;5.00;;;;;32.58;21.93;97926.69;6195711;28;126801;-64
2021/05/11 17:05:21;;;;;;;;;7.00;6.40;;;;;32.34;21.83;97924.53;6200287;28;126027;-65
2021/05/11 17:08:24;;;;;;;;;6.00;6.00;;;;;32.28;21.91;97934.47;6200311;28;126216;-64
2021/05/11 17:11:27;;;;;;;;;7.00;7.00;;;;;32.21;21.86;97935.19;6210483;28;125526;-65
2021/05/11 17:14:30;;;;;;;;;6.00;6.00;;;;;32.03;22.15;97934.22;6210150;28;124744;-64
2021/05/11 17:17:33;;;;;;;;;7.00;6.40;;;;;31.85;21.63;97899.84;6211683;28;124997;-64
2021/05/11 17:20:36;;;;;;;;;9.00;8.00;;;;;31.97;21.95;97932.97;6204597;28;124849;-64
2021/05/11 17:23:39;;;;;;;;;6.40;6.00;;;;;31.95;22.24;97929.81;6209434;28;125568;-65